DW8097 Weather Reports


Display with metric or nautical units.
time (UTC)temp
F
wind
direction
speed
MPH
gust
MPH
rain 1hr
in
rain 24hr
in
rain mn
in
humidity
%
barometer
mb
20240226030040 39 250 0.0 2.0 0.00 0.00 0.00 61 1010.6
20240226024551 40 251 0.0 2.0 0.00 0.00 0.00 58 1010.2
20240226023036 42 315 1.0 4.0 0.00 0.00 0.00 55 1010.1
20240226021537 43 294 1.0 3.0 0.00 0.00 0.00 54 1009.9
20240226020032 44 313 0.0 4.0 0.00 0.00 0.00 54 1009.7
20240226014536 44 308 1.0 4.0 0.00 0.00 0.00 53 1009.4
20240226013033 43 317 2.0 5.0 0.00 0.00 0.00 53 1009.3
20240226011533 45 311 3.0 6.0 0.00 0.00 0.00 51 1009.1
20240226010030 46 319 2.0 7.0 0.00 0.00 0.00 48 1008.7
20240226004532 47 300 2.0 4.0 0.00 0.00 0.00 47 1008.3
20240226003031 47 318 2.0 4.0 0.00 0.00 0.00 47 1008.0
20240226001536 47 314 2.0 7.0 0.00 0.00 0.00 48 1007.8
20240226000027 47 330 1.0 5.0 0.00 0.00 0.00 46 1007.5
20240225234524 48 328 3.0 6.0 0.00 0.00 0.00 44 1007.2
20240225233019 49 306 3.0 9.0 0.00 0.00 0.00 44 1006.9
20240225231519 50 321 4.0 7.0 0.00 0.00 0.00 45 1006.9
20240225230018 50 315 5.0 9.0 0.00 0.00 0.00 44 1006.8
20240225224513 51 355 2.0 5.0 0.00 0.00 0.00 46 1006.6
20240225223013 51 355 2.0 8.0 0.00 0.00 0.00 46 1006.5
20240225221511 51 315 7.0 12.0 0.00 0.00 0.00 45 1006.4
20240225220009 52 350 6.0 11.0 0.00 0.00 0.00 44 1006.2
20240225214510 53 270 6.0 11.0 0.00 0.00 0.00 44 1006.1
20240225213010 53 309 3.0 10.0 0.00 0.00 0.00 44 1005.9
20240225211512 52 311 4.0 10.0 0.00 0.00 0.00 45 1005.7
20240225210018 53 308 3.0 9.0 0.00 0.00 0.00 45 1005.6
20240225204508 52 323 5.0 10.0 0.00 0.00 0.00 46 1005.6
20240225203013 53 317 4.0 9.0 0.00 0.00 0.00 43 1005.4
20240225201506 52 302 6.0 10.0 0.00 0.00 0.00 45 1005.3
20240225200015 52 298 5.0 11.0 0.00 0.00 0.00 44 1005.6
20240225194510 51 24 5.0 11.0 0.00 0.00 0.00 45 1005.5
20240225193008 51 350 7.0 15.0 0.00 0.00 0.00 44 1005.6
20240225191507 50 5 9.0 17.0 0.00 0.00 0.00 45 1005.6
20240225190006 51 355 9.0 16.0 0.00 0.00 0.00 46 1005.7
20240225184600 51 321 5.0 10.0 0.00 0.00 0.00 49 1005.7
20240225183101 50 346 4.0 9.0 0.00 0.00 0.00 51 1005.9
20240225181630 50 346 5.0 7.0 0.00 0.00 0.00 49 1006.0
20240225180057 48 90 4.0 9.0 0.00 0.00 0.00 53 1005.9
20240225174604 48 85 5.0 9.0 0.00 0.00 0.00 54 1006.0
20240225174500 48 89 5.0 9.0 0.00 0.00 0.00 54 1005.9
20240225173103 49 97 4.0 9.0 0.00 0.00 0.00 52 1005.9
20240225171601 48 76 7.0 10.0 0.00 0.00 0.00 55 1006.1
20240225170056 48 289 3.0 7.0 0.00 0.00 0.00 54 1006.1
20240225164546 45 355 3.0 8.0 0.00 0.00 0.00 58 1006.1
20240225163045 44 5 1.0 10.0 0.00 0.00 0.00 60 1006.1
20240225161539 45 48 3.0 7.0 0.00 0.00 0.00 60 1006.1
20240225160037 44 5 3.0 8.0 0.00 0.00 0.00 61 1006.0
20240225154541 45 336 3.0 8.0 0.00 0.00 0.00 61 1006.1
20240225153037 41 34 2.0 7.0 0.00 0.00 0.00 68 1005.8
20240225151539 42 355 4.0 8.0 0.00 0.00 0.00 66 1005.8
20240225150031 41 323 3.0 6.0 0.00 0.00 0.00 67 1005.4
20240225144527 40 317 3.0 7.0 0.00 0.00 0.00 69 1005.2
20240225143026 40 336 2.0 6.0 0.00 0.00 0.00 68 1004.8
20240225141526 39 320 3.0 7.0 0.00 0.00 0.00 70 1004.8
20240225140028 39 283 2.0 5.0 0.00 0.00 0.00 69 1004.6
20240225134539 38 308 1.0 3.0 0.00 0.00 0.00 69 1004.3
20240225133023 37 306 1.0 3.0 0.00 0.00 0.00 70 1004.2
20240225131523 38 302 0.0 1.0 0.00 0.00 0.00 67 1004.1
20240225130022 37 283 1.0 4.0 0.00 0.00 0.00 68 1003.9
20240225124522 37 269 2.0 6.0 0.00 0.00 0.00 70 1003.6
20240225123021 40 243 0.0 2.0 0.00 0.00 0.00 64 1003.5
20240225121521 39 261 0.0 2.0 0.00 0.00 0.00 63 1003.3
20240225120047 39 306 0.0 3.0 0.00 0.00 0.00 66 1003.4
20240225114520 38 325 2.0 5.0 0.00 0.00 0.00 66 1003.3
20240225113019 39 284 2.0 7.0 0.00 0.00 0.00 66 1003.0
20240225111539 38 277 3.0 8.0 0.00 0.00 0.00 66 1002.8
20240225110019 38 294 3.0 8.0 0.00 0.00 0.00 66 1002.5
20240225104531 39 281 3.0 8.0 0.00 0.00 0.00 66 1002.4
20240225103031 39 266 2.0 8.0 0.00 0.00 0.00 66 1002.3
20240225101528 39 275 2.0 8.0 0.00 0.00 0.00 65 1002.3
20240225100027 39 317 4.0 8.0 0.00 0.00 0.00 65 1002.2
20240225094524 39 255 4.0 8.0 0.00 0.00 0.00 65 1002.3
20240225093123 38 330 2.0 7.0 0.00 0.00 0.00 65 1002.2
20240225091530 39 271 2.0 4.0 0.00 0.00 0.00 63 1002.1
20240225090028 39 296 0.0 6.0 0.00 0.00 0.00 64 1002.2
20240225084529 39 259 4.0 12.0 0.00 0.00 0.00 63 1002.1
20240225083021 39 253 3.0 13.0 0.00 0.00 0.00 63 1002.2
20240225081517 39 256 3.0 10.0 0.00 0.00 0.00 62 1002.4
20240225080015 39 215 3.0 8.0 0.00 0.00 0.00 62 1002.5
20240225074520 40 265 4.0 9.0 0.00 0.00 0.00 61 1002.7
20240225073014 40 258 3.0 9.0 0.00 0.00 0.00 60 1002.7
20240225071512 40 280 4.0 11.0 0.00 0.00 0.00 60 1002.9
20240225070013 40 223 5.0 11.0 0.00 0.00 0.00 60 1002.9
20240225064510 40 266 5.0 13.0 0.00 0.00 0.00 58 1002.9
20240225063009 40 244 6.0 15.0 0.00 0.00 0.00 58 1003.0
20240225061510 40 242 7.0 13.0 0.00 0.00 0.00 58 1003.0
20240225060007 40 236 8.0 17.0 0.00 0.00 0.00 58 1003.3
20240225054504 40 207 8.0 18.0 0.00 0.00 0.00 58 1003.4
20240225053003 40 242 10.0 20.0 0.00 0.00 0.00 58 1003.6
20240225051600 40 221 9.0 18.0 0.00 0.00 0.00 58 1004.0
20240225050059 40 250 10.0 18.0 0.00 0.00 0.00 57 1004.1
20240225044556 39 249 8.0 15.0 0.00 0.00 0.00 57 1004.5
20240225043056 39 212 7.0 16.0 0.00 0.00 0.00 57 1004.8
20240225041552 39 231 9.0 18.0 0.00 0.00 0.00 57 1005.0
20240225040052 39 231 8.0 15.0 0.00 0.00 0.00 56 1005.3
20240225034555 39 242 9.0 17.0 0.00 0.00 0.00 57 1005.6
20240225033052 39 192 8.0 15.0 0.00 0.00 0.00 56 1005.9
20240225031552 39 251 8.0 20.0 0.00 0.00 0.00 55 1006.0